createdAt,value
2023-12-23T00:02:34.984Z,149129.81
2023-12-23T00:07:37.450Z,149124.72
2023-12-23T00:12:39.267Z,149043.91
2023-12-23T00:17:41.145Z,149065.72
2023-12-23T00:22:42.979Z,149043.91
2023-12-23T00:27:44.661Z,149061.88
2023-12-23T00:32:47.598Z,149072.13
2023-12-23T00:37:49.695Z,149097.75
2023-12-23T00:42:51.492Z,149113.13
2023-12-23T00:47:53.468Z,149172.13
2023-12-23T00:52:55.415Z,149167.00
2023-12-23T00:57:57.148Z,149147.78
2023-12-23T01:02:58.811Z,149178.53
2023-12-23T01:08:00.517Z,149181.13
2023-12-23T01:13:02.251Z,149223.41
2023-12-23T01:18:04.198Z,149177.25
2023-12-23T01:23:05.900Z,149227.28
2023-12-23T01:28:09.488Z,149255.47
2023-12-23T01:33:11.517Z,149265.75
2023-12-23T01:38:13.249Z,149241.38
2023-12-23T01:43:14.967Z,149242.66
2023-12-23T01:48:16.905Z,149281.19
2023-12-23T01:53:19.233Z,149287.56
2023-12-23T01:58:24.102Z,149318.34
2023-12-23T02:03:26.166Z,149302.97
2023-12-23T02:08:28.158Z,149269.63
2023-12-23T02:13:37.082Z,149292.72
2023-12-23T02:18:39.946Z,149213.16
2023-12-23T02:23:41.939Z,149179.81
2023-12-23T02:28:44.440Z,149174.69
2023-12-23T02:33:50.657Z,149136.25
2023-12-23T02:38:52.812Z,149184.97
2023-12-23T02:43:54.435Z,149158.06
2023-12-23T02:48:56.138Z,149146.47
2023-12-23T02:53:57.803Z,149114.44
2023-12-23T02:58:59.796Z,149072.13
2023-12-23T03:04:01.569Z,149073.41
2023-12-23T03:09:04.386Z,149073.41
2023-12-23T03:14:06.664Z,149106.75
2023-12-23T03:19:10.267Z,149099.03
2023-12-23T03:24:11.997Z,149056.72
2023-12-23T03:29:13.679Z,149101.59
2023-12-23T03:34:15.465Z,149077.25
2023-12-23T03:39:17.091Z,149092.66
2023-12-23T03:44:18.762Z,149128.53
2023-12-23T03:49:20.475Z,149117.00
2023-12-23T03:54:22.317Z,149091.38
2023-12-23T03:59:24.078Z,149141.34
2023-12-23T04:04:25.827Z,149088.78
2023-12-23T04:09:27.702Z,149126.00
2023-12-23T04:14:29.450Z,149155.44
2023-12-23T04:19:31.232Z,149132.38
2023-12-23T04:24:33.359Z,149118.28
2023-12-23T04:29:35.142Z,149122.13
2023-12-23T04:34:38.634Z,149164.44
2023-12-23T04:39:40.496Z,149141.34
2023-12-23T04:44:42.271Z,149123.38
2023-12-23T04:49:44.020Z,149154.16
2023-12-23T04:54:46.193Z,149117.00
2023-12-23T04:59:47.957Z,149141.34
2023-12-23T05:04:49.905Z,149137.53
2023-12-23T05:09:51.570Z,149146.47
2023-12-23T05:14:53.346Z,149150.34
2023-12-23T05:19:56.516Z,149175.97
2023-12-23T05:24:58.240Z,149164.44
2023-12-23T05:30:00.598Z,149143.91
2023-12-23T05:35:02.361Z,149187.50
2023-12-23T05:40:05.989Z,149210.59
2023-12-23T05:45:08.240Z,149243.94
2023-12-23T05:50:11.504Z,149211.88
2023-12-23T05:55:13.176Z,149237.56
2023-12-23T06:00:15.484Z,149223.41
2023-12-23T06:05:17.251Z,149201.59
2023-12-23T06:10:19.017Z,149143.91
2023-12-23T06:15:20.656Z,149092.66
2023-12-23T06:20:22.406Z,149023.41
2023-12-23T06:25:24.099Z,149026.00
2023-12-23T06:30:25.784Z,149005.47
2023-12-23T06:35:27.567Z,148978.53
2023-12-23T06:40:32.070Z,148983.69
2023-12-23T06:45:33.745Z,148981.16
2023-12-23T06:50:35.405Z,148960.63
2023-12-23T06:55:37.178Z,148988.81
2023-12-23T07:00:38.868Z,148976.00
2023-12-23T07:05:40.857Z,148997.78
2023-12-23T07:10:42.724Z,149005.47
2023-12-23T07:15:44.577Z,148987.53
2023-12-23T07:20:47.360Z,148997.78
2023-12-23T07:25:49.142Z,148968.28
2023-12-23T07:30:50.862Z,148963.19
2023-12-23T07:35:52.621Z,148997.78
2023-12-23T07:40:55.362Z,148979.88
2023-12-23T07:45:57.072Z,148974.72
2023-12-23T07:50:59.019Z,148958.06
2023-12-23T07:56:00.887Z,148981.16
2023-12-23T08:01:02.631Z,148987.53
2023-12-23T08:06:04.622Z,148961.91
2023-12-23T08:11:06.468Z,148974.72
2023-12-23T08:16:08.879Z,148956.75
2023-12-23T08:21:10.561Z,148967.00
2023-12-23T08:26:12.261Z,148954.19
2023-12-23T08:31:14.250Z,148984.97
2023-12-23T08:36:16.603Z,148990.06
2023-12-23T08:41:31.620Z,148942.66
2023-12-23T08:46:35.505Z,148917.06
2023-12-23T08:51:39.356Z,148914.50
2023-12-23T08:56:41.132Z,148931.16
2023-12-23T09:01:44.976Z,148942.66
2023-12-23T09:06:47.425Z,148959.34
2023-12-23T09:11:49.229Z,148981.16
2023-12-23T09:16:51.890Z,148967.00
2023-12-23T09:21:53.726Z,148979.88
2023-12-23T09:26:55.523Z,148951.66
2023-12-23T09:31:57.351Z,148972.16
2023-12-23T09:36:59.061Z,149022.13
2023-12-23T09:42:00.884Z,148987.53
2023-12-23T09:47:02.903Z,148974.72
2023-12-23T09:52:05.100Z,148976.00
2023-12-23T09:57:08.859Z,148987.53
2023-12-23T10:02:10.727Z,149031.09
2023-12-23T10:07:12.413Z,149032.38
2023-12-23T10:12:14.028Z,149033.66
2023-12-23T10:17:15.775Z,149043.91
2023-12-23T10:22:17.520Z,149046.47
2023-12-23T10:27:19.378Z,149056.72
2023-12-23T10:32:29.182Z,149090.06
2023-12-23T10:37:33.394Z,149127.28
2023-12-23T10:42:36.370Z,149133.66
2023-12-23T10:47:39.182Z,149158.06
2023-12-23T10:52:42.956Z,149128.53
2023-12-23T10:57:46.854Z,149183.69
2023-12-23T11:02:50.902Z,149204.22
2023-12-23T11:08:01.279Z,149158.06
2023-12-23T11:13:36.206Z,149200.34
2023-12-23T11:18:41.372Z,149132.38
2023-12-23T11:23:43.168Z,149100.31
2023-12-23T11:28:50.090Z,149093.94
2023-12-23T11:33:53.080Z,149072.13
2023-12-23T11:38:55.055Z,149061.88
2023-12-23T11:43:57.914Z,149077.25
2023-12-23T11:49:01.326Z,149065.72
2023-12-23T11:54:03.269Z,149046.47
2023-12-23T11:59:06.526Z,149040.09
2023-12-23T12:04:09.710Z,149015.75
2023-12-23T12:09:11.606Z,148986.25
2023-12-23T12:14:13.340Z,148946.56
2023-12-23T12:19:15.234Z,148987.53
2023-12-23T12:24:18.524Z,148973.44
2023-12-23T12:29:22.059Z,148987.53
2023-12-23T12:34:25.068Z,148923.44
2023-12-23T12:39:27.149Z,148929.88
2023-12-23T12:44:28.890Z,148959.34
2023-12-23T12:49:30.642Z,148974.72
2023-12-23T12:54:32.456Z,148910.63
2023-12-23T12:59:34.362Z,148976.00
2023-12-23T13:04:38.683Z,148993.94
2023-12-23T13:09:42.097Z,148999.06
2023-12-23T13:14:43.809Z,148967.00
2023-12-23T13:19:45.569Z,148987.53
2023-12-23T13:24:47.292Z,148996.50
2023-12-23T13:29:49.154Z,149015.75
2023-12-23T13:34:50.940Z,149023.41
2023-12-23T13:39:52.649Z,148987.53
2023-12-23T13:44:54.353Z,148978.53
2023-12-23T13:49:56.159Z,149004.22
2023-12-23T13:54:57.922Z,149015.75
2023-12-23T13:59:59.616Z,149014.47
2023-12-23T14:05:01.352Z,149008.03
2023-12-23T14:10:03.190Z,149010.59
2023-12-23T14:15:05.437Z,149042.63
2023-12-23T14:20:07.664Z,149041.34
2023-12-23T14:25:09.753Z,149058.03
2023-12-23T14:30:12.222Z,149050.34
2023-12-23T14:35:14.168Z,149026.00
2023-12-23T14:40:15.869Z,149026.00
2023-12-23T14:45:18.259Z,149004.22
2023-12-23T14:50:22.169Z,149001.59
2023-12-23T14:55:23.881Z,149004.22
2023-12-23T15:00:25.478Z,148988.81
2023-12-23T15:05:27.290Z,149024.72
2023-12-23T15:10:29.148Z,149009.31
2023-12-23T15:15:31.369Z,148979.88
2023-12-23T15:20:33.142Z,149010.59
2023-12-23T15:25:34.900Z,149013.13
2023-12-23T15:30:37.156Z,148969.63
2023-12-23T15:35:38.867Z,148983.69
2023-12-23T15:40:40.493Z,148974.72
2023-12-23T15:45:42.185Z,148972.16
2023-12-23T15:50:43.875Z,148973.44
2023-12-23T15:55:45.612Z,148988.81
2023-12-23T16:00:47.318Z,149023.41
2023-12-23T16:05:49.133Z,149023.41
2023-12-23T16:10:50.937Z,149043.91
2023-12-23T16:15:52.639Z,149041.34
2023-12-23T16:20:54.429Z,149018.28
2023-12-23T16:25:56.318Z,149066.97
2023-12-23T16:30:58.240Z,149041.34
2023-12-23T16:36:00.187Z,149042.63
2023-12-23T16:41:02.094Z,149028.56
2023-12-23T16:46:03.903Z,149031.09
2023-12-23T16:51:05.848Z,149033.66
2023-12-23T16:56:07.837Z,149022.13
2023-12-23T17:01:09.738Z,149064.44
2023-12-23T17:06:12.108Z,149026.00
2023-12-23T17:11:13.901Z,149038.81
2023-12-23T17:16:15.637Z,149000.34
2023-12-23T17:21:17.286Z,149024.72
2023-12-23T17:26:18.938Z,149036.25
2023-12-23T17:31:20.603Z,149034.94
2023-12-23T17:36:23.224Z,149046.47
2023-12-23T17:41:25.221Z,149028.56
2023-12-23T17:46:28.417Z,149050.34
2023-12-23T17:51:30.097Z,149008.03
2023-12-23T17:56:31.954Z,149038.81
2023-12-23T18:01:33.652Z,149032.38
2023-12-23T18:06:35.303Z,149023.41
2023-12-23T18:11:37.005Z,149066.97
2023-12-23T18:16:38.794Z,149079.78
2023-12-23T18:21:40.447Z,149047.78
2023-12-23T18:26:43.529Z,149036.25
2023-12-23T18:31:45.283Z,149063.16
2023-12-23T18:36:47.092Z,149070.84
2023-12-23T18:41:48.697Z,149050.34
2023-12-23T18:46:50.482Z,149082.41
2023-12-23T18:51:52.581Z,149073.41
2023-12-23T18:56:54.204Z,149091.38
2023-12-23T19:01:55.892Z,149066.97
2023-12-23T19:06:57.955Z,149088.78
2023-12-23T19:11:59.565Z,149127.28
2023-12-23T19:17:01.253Z,149141.34
2023-12-23T19:22:03.261Z,149165.72
2023-12-23T19:27:04.992Z,149160.59
2023-12-23T19:32:06.959Z,149186.22
2023-12-23T19:37:08.687Z,149218.31
2023-12-23T19:42:10.312Z,149228.56
2023-12-23T19:47:12.058Z,149205.50
2023-12-23T19:52:13.744Z,149237.56
2023-12-23T19:57:16.370Z,149250.38
2023-12-23T20:02:18.077Z,149281.19
2023-12-23T20:07:19.764Z,149294.00
2023-12-23T20:12:21.554Z,149296.53
2023-12-23T20:17:23.325Z,149287.56
2023-12-23T20:22:25.080Z,149309.38
2023-12-23T20:27:26.778Z,149338.91
2023-12-23T20:32:29.105Z,149364.53
2023-12-23T20:37:30.778Z,149392.78
2023-12-23T20:42:32.636Z,149376.09
2023-12-23T20:47:34.621Z,149419.72
2023-12-23T20:52:36.717Z,149419.72
2023-12-23T20:57:38.390Z,149450.53
2023-12-23T21:02:40.683Z,149451.81
2023-12-23T21:07:42.695Z,149423.56
2023-12-23T21:12:44.970Z,149449.25
2023-12-23T21:17:46.761Z,149460.81
2023-12-23T21:22:48.698Z,149405.63
2023-12-23T21:27:50.445Z,149454.38
2023-12-23T21:32:52.516Z,149423.56
2023-12-23T21:37:54.432Z,149440.28
2023-12-23T21:42:56.230Z,149435.09
2023-12-23T21:47:58.060Z,149442.81
2023-12-23T21:53:00.699Z,149400.47
2023-12-23T21:58:02.367Z,149400.47
2023-12-23T22:03:04.265Z,149385.09
2023-12-23T22:08:06.317Z,149365.81
2023-12-23T22:13:07.998Z,149335.00
2023-12-23T22:18:10.050Z,149369.72
2023-12-23T22:23:13.646Z,149392.78
2023-12-23T22:28:15.723Z,149428.72
2023-12-23T22:33:17.566Z,149400.47
2023-12-23T22:38:19.261Z,149331.19
2023-12-23T22:43:21.910Z,149427.44
2023-12-23T22:48:24.013Z,149415.91
2023-12-23T22:53:25.729Z,149354.28
2023-12-23T22:58:27.380Z,149370.97
2023-12-23T23:03:29.108Z,149337.63
2023-12-23T23:08:30.878Z,149428.72
2023-12-23T23:13:32.575Z,149421.00
2023-12-23T23:18:34.649Z,149377.38
2023-12-23T23:23:37.993Z,149418.44
2023-12-23T23:28:39.678Z,149405.63
2023-12-23T23:33:41.632Z,149440.28
2023-12-23T23:38:43.665Z,149408.19
2023-12-23T23:43:45.309Z,149480.03
2023-12-23T23:48:47.012Z,149501.84
2023-12-23T23:53:49.477Z,149427.44
2023-12-23T23:58:51.148Z,149785.72
